Flight Track Log - Related Links

Times and Time Zones

All times are in EDT time to prevent confusion due to time zone crossing. See the SWA3924 flight status page for this flight to view local times or setup timezone preferences in your user account.

Time Position Orientation Groundspeed Altitude Reporting Facility
EDT Latitude Longitude Course Direction KTS MPH feet Rate Location/Type
Wed 03:47:00 PM 36.1660 -86.8474 287° West  Level FlightAware Approximate
Wed 03:47:59 PM 36.2167 -86.7833 287° West 258 297 5,200  Level Nashville TRACON
Wed 03:48:45 PM 36.2222 -86.8736 274° West 248 285 8,100 3,226 Climbing Memphis Center
Wed 03:49:45 PM 36.2325 -86.9478 280° West 268 308 10,900 2,400 Climbing Memphis Center
Wed 03:50:45 PM 36.2481 -87.0553 280° West 294 338 12,900 2,700 Climbing Memphis Center
Wed 03:51:45 PM 36.2633 -87.1678 280° West 332 382 16,300 2,750 Climbing Memphis Center
Wed 03:52:45 PM 36.2786 -87.2703 281° West 338 389 18,400 2,200 Climbing Memphis Center
Wed 03:53:45 PM 36.2958 -87.3856 281° West 344 396 20,700 2,250 Climbing Memphis Center
Wed 03:54:45 PM 36.3156 -87.5058 282° West 352 405 22,900 1,750 Climbing Memphis Center
Wed 03:55:45 PM 36.3100 -87.6347 267° West 357 411 24,200 1,550 Climbing Memphis Center
Wed 03:56:45 PM 36.3022 -87.7561 265° West 362 417 26,000 1,700 Climbing Memphis Center
Wed 03:57:45 PM 36.2986 -87.8875 268° West 374 430 27,600 1,850 Climbing Memphis Center
Wed 03:58:45 PM 36.2908 -88.0292 266° West 379 436 29,700 1,800 Climbing Memphis Center
Wed 03:59:45 PM 36.2844 -88.1247 265° West 374 430 31,200 1,750 Climbing Memphis Center
Wed 04:00:45 PM 36.2783 -88.2614 267° West 363 418 33,200 1,700 Climbing Memphis Center
Wed 04:01:45 PM 36.2719 -88.3800 266° West 363 418 34,600 1,400 Climbing Memphis Center
Wed 04:02:45 PM 36.2656 -88.5036 266° West 363 418 36,000 700 Climbing Memphis Center
Wed 04:03:45 PM 36.2589 -88.6222 266° West 363 418 36,000  Level Memphis Center
Wed 04:04:45 PM 36.2522 -88.7381 266° West 358 412 36,000  Level Memphis Center
Wed 04:06:00 PM 36.2333 -88.8807 270° West  Level FlightAware Approximate
Wed 04:06:45 PM 36.2364 -88.9778 270° West 353 406 36,000  Level Memphis Center
Wed 04:07:45 PM 36.2272 -89.0936 264° West 348 400 36,000  Level Memphis Center
Wed 04:08:45 PM 36.2200 -89.2147 266° West 348 400 36,000  Level Memphis Center
Wed 04:09:45 PM 36.2106 -89.3358 265° West 353 406 36,000  Level Memphis Center
Wed 04:10:45 PM 36.2053 -89.4567 267° West 353 406 36,000  Level Memphis Center
Wed 04:11:45 PM 36.2000 -89.5778 267° West 353 406 36,000  Level Memphis Center
Wed 04:12:45 PM 36.1922 -89.7064 266° West 348 400 36,000  Level Memphis Center
Wed 04:13:45 PM 36.1844 -89.8247 265° West 348 400 36,000  Level Memphis Center
Wed 04:14:45 PM 36.1786 -89.9431 267° West 348 400 36,000  Level Memphis Center
Wed 04:15:45 PM 36.1708 -90.0639 265° West 348 400 36,000  Level Memphis Center
Wed 04:16:45 PM 36.1606 -90.1872 264° West 353 406 36,000  Level Memphis Center
Wed 04:17:45 PM 36.1544 -90.3056 266° West 353 406 36,000  Level Memphis Center
Wed 04:18:45 PM 36.1461 -90.4264 265° West 353 406 36,000  Level Memphis Center
Wed 04:19:45 PM 36.1397 -90.5472 266° West 353 406 36,000  Level Memphis Center
Wed 04:20:45 PM 36.1333 -90.6628 266° West 348 400 36,000  Level Memphis Center
Wed 04:21:45 PM 36.1267 -90.7836 266° West 348 400 36,000  Level Memphis Center
Wed 04:22:45 PM 36.1219 -90.9017 267° West 348 400 36,000  Level Memphis Center
Wed 04:23:45 PM 36.1172 -91.0225 267° West 348 400 36,000  Level Memphis Center
Wed 04:24:45 PM 36.1103 -91.1381 266° West 348 400 36,000  Level Memphis Center
Wed 04:25:45 PM 36.1117 -91.2589 271° West 348 400 36,000  Level Memphis Center
Wed 04:26:45 PM 36.1169 -91.3769 273° West 348 400 36,000  Level Memphis Center
Wed 04:27:45 PM 36.1200 -91.4928 272° West 348 400 36,000  Level Memphis Center
Wed 04:28:45 PM 36.1272 -91.6111 274° West 348 400 36,000  Level Memphis Center
Wed 04:29:45 PM 36.1261 -91.7317 269° West 348 400 36,000  Level Memphis Center
Wed 04:30:45 PM 36.1353 -91.8500 276° West 348 400 36,000  Level Memphis Center
Wed 04:31:45 PM 36.1294 -91.9683 267° West 348 400 36,000  Level Memphis Center
Wed 04:32:45 PM 36.1428 -92.0661 280° West 348 400 36,000  Level Memphis Center
Wed 04:33:45 PM 36.1450 -92.2075 271° West 348 400 36,000  Level Memphis Center
Wed 04:34:45 PM 36.1514 -92.3258 274° West 348 400 36,000  Level Memphis Center
Wed 04:35:45 PM 36.1517 -92.4442 270° West 348 400 36,000  Level Memphis Center
Wed 04:36:45 PM 36.1558 -92.5625 273° West 348 400 36,000  Level Memphis Center
Wed 04:37:45 PM 36.1578 -92.6808 271° West 348 400 36,000  Level Memphis Center
Wed 04:38:45 PM 36.1619 -92.7992 273° West 348 400 36,000  Level Memphis Center
Wed 04:39:45 PM 36.1639 -92.9072 271° West 348 400 36,000  Level Memphis Center
Wed 04:40:45 PM 36.1675 -93.0283 272° West 348 400 36,000  Level Memphis Center
Wed 04:41:45 PM 36.1692 -93.1464 271° West 348 400 36,000  Level Memphis Center
Wed 04:42:45 PM 36.1706 -93.2647 271° West 353 406 36,000  Level Memphis Center
Wed 04:43:45 PM 36.1742 -93.3858 272° West 347 399 36,000  Level Memphis Center
Wed 04:44:45 PM 36.1772 -93.5094 272° West 347 399 36,000  Level Memphis Center
Wed 04:45:45 PM 36.1806 -93.6278 272° West 347 399 36,000  Level Memphis Center
Wed 04:46:45 PM 36.1789 -93.7614 269° West 347 399 36,000  Level Memphis Center
Wed 04:47:45 PM 36.1797 -93.8847 271° West 347 399 36,000  Level Memphis Center
Wed 04:48:45 PM 36.1806 -94.0006 271° West 347 399 36,000  Level Memphis Center
Wed 04:49:45 PM 36.1831 -94.1217 272° West 347 399 36,000  Level Memphis Center
Wed 04:50:45 PM 36.1858 -94.2400 272° West 347 399 36,000  Level Memphis Center
Wed 04:51:45 PM 36.1861 -94.3608 270° West 347 399 36,000  Level Memphis Center
Wed 04:52:45 PM 36.1864 -94.4767 270° West 347 399 36,000  Level Memphis Center
Wed 04:55:09 PM 36.1922 -94.7392 272° West 345 397 36,000  Level Kansas City Center
Wed 04:56:10 PM 36.1931 -94.8597 271° West 346 398 36,000  Level Kansas City Center
Wed 04:57:11 PM 36.1939 -95.0028 270° West 346 398 36,000  Level Kansas City Center
Wed 04:58:15 PM 36.1950 -95.1128 271° West 347 399 36,000  Level Kansas City Center
Wed 04:59:16 PM 36.1950 -95.2300 270° West 343 395 36,000  Level Kansas City Center
Wed 05:00:17 PM 36.1956 -95.3494 270° West 346 398 36,000  Level Kansas City Center
Wed 05:01:22 PM 36.1964 -95.4917 270° West 346 398 36,000  Level Kansas City Center
Wed 05:02:22 PM 36.1958 -95.6100 270° West 345 397 36,000  Level Kansas City Center
Wed 05:03:26 PM 36.1961 -95.7283 270° West 345 397 36,000  Level Kansas City Center
Wed 05:04:28 PM 36.1867 -95.8442 264° West 350 403 36,000  Level Kansas City Center
Wed 05:05:28 PM 36.1669 -95.9606 258° West 347 399 36,000 878 Level Kansas City Center
Wed 05:06:31 PM 36.1439 -96.1000 258° West 345 397 37,800 968 Climbing Kansas City Center
Wed 05:07:32 PM 36.1244 -96.2125 258° West 339 390 38,000 96 Climbing Kansas City Center
Wed 05:08:36 PM 36.1047 -96.3267 258° West 338 389 38,000  Level Kansas City Center
Wed 05:09:37 PM 36.0856 -96.4403 258° West 338 389 38,000  Level Kansas City Center
Wed 05:10:40 PM 36.0667 -96.5558 259° West 340 391 38,000  Level Kansas City Center
Wed 05:11:41 PM 36.0469 -96.6658 258° West 336 387 38,000  Level Kansas City Center
Wed 05:12:43 PM 36.0239 -96.8011 258° West 336 387 38,000  Level Kansas City Center
Wed 05:13:47 PM 36.0053 -96.9114 258° West 332 382 38,000  Level Kansas City Center
Wed 05:14:47 PM 35.9847 -97.0206 257° West 328 377 38,000  Level Kansas City Center
Wed 05:15:48 PM 35.9653 -97.1286 257° West 326 375 38,000  Level Kansas City Center
Wed 05:16:53 PM 35.9461 -97.2367 258° West 325 374 38,000  Level Kansas City Center
Wed 05:17:53 PM 35.9239 -97.3681 258° West 327 376 38,000  Level Kansas City Center
Wed 05:18:57 PM 35.9039 -97.4775 257° West 330 380 38,000  Level Kansas City Center
Wed 05:19:57 PM 35.8828 -97.5875 257° West 331 381 38,000  Level Kansas City Center
Wed 05:21:01 PM 35.8625 -97.6978 257° West 332 382 38,000  Level Kansas City Center
Wed 05:21:42 PM 35.8436 -97.7950 257° West 336 387 38,000  Level Fort Worth Center
Wed 05:22:42 PM 35.8222 -97.9000 256° West 336 387 38,000  Level Fort Worth Center
Wed 05:23:42 PM 35.8050 -98.0125 259° West 336 387 38,000  Level Fort Worth Center
Wed 05:24:42 PM 35.7900 -98.1250 261° West 336 387 38,000  Level Fort Worth Center
Wed 05:25:42 PM 35.7747 -98.2347 260° West 336 387 38,000  Level Fort Worth Center
Wed 05:26:42 PM 35.7614 -98.3447 262° West 336 387 38,000  Level Fort Worth Center
Wed 05:27:42 PM 35.7458 -98.4569 260° West 336 387 38,000  Level Fort Worth Center
Wed 05:28:42 PM 35.7325 -98.5667 262° West 336 387 38,000  Level Fort Worth Center
Wed 05:29:42 PM 35.7167 -98.6817 260° West 336 387 38,000  Level Fort Worth Center
Wed 05:30:42 PM 35.7031 -98.7914 261° West 330 380 38,000  Level Fort Worth Center
Wed 05:31:42 PM 35.6892 -98.9008 261° West 330 380 38,000  Level Fort Worth Center
Wed 05:32:42 PM 35.6711 -99.0131 259° West 330 380 38,000  Level Fort Worth Center
Wed 05:33:42 PM 35.6572 -99.1250 261° West 330 380 38,000  Level Fort Worth Center
Wed 05:34:42 PM 35.6433 -99.2244 260° West 330 380 38,000  Level Fort Worth Center
Wed 05:35:42 PM 35.6311 -99.3364 262° West 330 380 38,000  Level Fort Worth Center
Wed 05:36:42 PM 35.6419 -99.4442 277° West 330 380 38,000  Level Fort Worth Center
Wed 05:37:42 PM 35.6506 -99.5567 275° West 330 380 38,000  Level Fort Worth Center
Wed 05:38:42 PM 35.6611 -99.6667 277° West 330 380 38,000  Level Fort Worth Center
Wed 05:39:34 PM 35.6714 -99.7517 278° West 326 375 38,000  Level Albuquerque Center
Wed 05:40:36 PM 35.6839 -99.8858 277° West 327 376 38,000  Level Albuquerque Center
Wed 05:41:38 PM 35.6931 -99.9961 276° West 325 374 38,000  Level Albuquerque Center
Wed 05:42:40 PM 35.7036 -100.1067 277° West 324 373 38,000  Level Albuquerque Center
Wed 05:43:42 PM 35.7136 -100.2186 276° West 327 376 38,000  Level Albuquerque Center
Wed 05:44:44 PM 35.7228 -100.3286 276° West 325 374 38,000  Level Albuquerque Center
Wed 05:45:47 PM 35.7314 -100.4386 276° West 323 372 38,000  Level Albuquerque Center
Wed 05:46:48 PM 35.7406 -100.5483 276° West 322 371 38,000  Level Albuquerque Center
Wed 05:47:50 PM 35.7514 -100.6806 276° West 323 372 38,000  Level Albuquerque Center
Wed 05:48:52 PM 35.7608 -100.7908 276° West 324 373 38,000  Level Albuquerque Center
Wed 05:49:54 PM 35.7692 -100.9022 275° West 326 375 38,000  Level Albuquerque Center
Wed 05:50:56 PM 35.7794 -101.0231 276° West 328 377 38,000  Level Albuquerque Center
Wed 05:51:58 PM 35.7878 -101.1344 275° West 329 379 38,000  Level Albuquerque Center
Wed 05:53:00 PM 35.7969 -101.2458 276° West 328 377 38,000  Level Albuquerque Center
Wed 05:54:03 PM 35.8056 -101.3572 275° West 329 379 38,000  Level Albuquerque Center
Wed 05:55:05 PM 35.8056 -101.4678 270° West 326 375 38,000  Level Albuquerque Center
Wed 05:56:07 PM 35.8019 -101.6000 268° West 324 373 38,000  Level Albuquerque Center
Wed 05:57:09 PM 35.7981 -101.7103 268° West 324 373 38,000  Level Albuquerque Center
Wed 05:58:11 PM 35.7956 -101.8214 268° West 325 374 38,000  Level Albuquerque Center
Wed 05:59:13 PM 35.7919 -101.9333 268° West 327 376 38,000  Level Albuquerque Center
Wed 06:00:15 PM 35.7886 -102.0592 268° West 328 377 38,000  Level Albuquerque Center
Wed 06:01:17 PM 35.7847 -102.1800 268° West 331 381 38,000  Level Albuquerque Center
Wed 06:02:19 PM 35.7811 -102.2928 268° West 332 382 38,000  Level Albuquerque Center
Wed 06:03:21 PM 35.7772 -102.4044 268° West 331 381 38,000  Level Albuquerque Center
Wed 06:04:23 PM 35.7736 -102.5186 268° West 333 383 38,000  Level Albuquerque Center
Wed 06:05:25 PM 35.7703 -102.6308 268° West 332 382 38,000  Level Albuquerque Center
Wed 06:06:27 PM 35.7650 -102.7667 267° West 333 383 38,000  Level Albuquerque Center
Wed 06:07:29 PM 35.7606 -102.8803 267° West 333 383 38,000  Level Albuquerque Center
Wed 06:08:31 PM 35.7575 -102.9917 268° West 332 382 38,000  Level Albuquerque Center
Wed 06:09:33 PM 35.7531 -103.1050 267° West 331 381 38,000  Level Albuquerque Center
Wed 06:10:35 PM 35.7475 -103.2169 267° West 327 376 38,000  Level Albuquerque Center
Wed 06:11:37 PM 35.7436 -103.3289 268° West 326 375 38,000  Level Albuquerque Center
Wed 06:12:39 PM 35.7383 -103.4622 267° West 330 380 38,000  Level Albuquerque Center
Wed 06:13:41 PM 35.7336 -103.5767 267° West 332 382 38,000  Level Albuquerque Center
Wed 06:14:43 PM 35.7286 -103.6914 267° West 334 384 38,000  Level Albuquerque Center
Wed 06:15:45 PM 35.7236 -103.8056 267° West 333 383 38,000  Level Albuquerque Center
Wed 06:16:47 PM 35.7181 -103.9211 267° West 336 387 38,000  Level Albuquerque Center
Wed 06:17:49 PM 35.7133 -104.0344 267° West 333 383 38,000  Level Albuquerque Center
Wed 06:18:51 PM 35.7072 -104.1667 267° West 331 381 38,000  Level Albuquerque Center
Wed 06:19:52 PM 35.7014 -104.2800 266° West 331 381 38,000  Level Albuquerque Center
Wed 06:20:54 PM 35.6964 -104.3969 267° West 338 389 38,000  Level Albuquerque Center
Wed 06:21:56 PM 35.6897 -104.5153 266° West 343 395 38,000  Level Albuquerque Center
Wed 06:22:58 PM 35.6844 -104.6328 267° West 344 396 38,000  Level Albuquerque Center
Wed 06:24:00 PM 35.6778 -104.7503 266° West 344 396 38,000  Level Albuquerque Center
Wed 06:25:02 PM 35.6714 -104.8664 266° West 340 391 38,000  Level Albuquerque Center
Wed 06:26:04 PM 35.6639 -105.0036 266° West 342 394 38,000  Level Albuquerque Center
Wed 06:27:06 PM 35.6575 -105.1222 266° West 345 397 38,000  Level Albuquerque Center
Wed 06:28:08 PM 35.6519 -105.2381 267° West 340 391 38,000  Level Albuquerque Center
Wed 06:29:10 PM 35.6497 -105.3522 269° West 334 384 38,000  Level Albuquerque Center
Wed 06:30:12 PM 35.6456 -105.4703 268° West 340 391 38,000  Level Albuquerque Center
Wed 06:31:14 PM 35.6406 -105.5972 267° West 346 398 38,000  Level Albuquerque Center
Wed 06:32:16 PM 35.6356 -105.7150 267° West 347 399 38,000  Level Albuquerque Center
Wed 06:33:18 PM 35.6308 -105.8469 268° West 344 396 38,000  Level Albuquerque Center
Wed 06:34:20 PM 35.6275 -105.9469 268° West 340 391 38,000  Level Albuquerque Center
Wed 06:35:22 PM 35.6231 -106.0622 267° West 339 390 38,000  Level Albuquerque Center
Wed 06:36:24 PM 35.6167 -106.1981 267° West 335 386 38,000  Level Albuquerque Center
Wed 06:37:25 PM 35.6142 -106.3161 269° West 342 394 38,000  Level Albuquerque Center
Wed 06:38:27 PM 35.6092 -106.4325 267° West 343 395 38,000  Level Albuquerque Center
Wed 06:39:29 PM 35.6036 -106.5486 267° West 343 395 38,000  Level Albuquerque Center
Wed 06:40:31 PM 35.5978 -106.6661 267° West 345 397 38,000  Level Albuquerque Center
Wed 06:41:33 PM 35.5933 -106.7831 267° West 345 397 38,000  Level Albuquerque Center
Wed 06:42:35 PM 35.5853 -106.9250 266° West 347 399 38,000  Level Albuquerque Center
Wed 06:43:37 PM 35.5808 -107.0411 267° West 344 396 38,000  Level Albuquerque Center
Wed 06:44:39 PM 35.5744 -107.1592 266° West 347 399 38,000  Level Albuquerque Center
Wed 06:45:41 PM 35.5675 -107.2939 266° West 346 398 38,000  Level Albuquerque Center
Wed 06:46:43 PM 35.5614 -107.4067 266° West 345 397 38,000  Level Albuquerque Center
Wed 06:47:44 PM 35.5556 -107.5181 266° West 343 395 38,000  Level Albuquerque Center
Wed 06:48:46 PM 35.5500 -107.6464 267° West 339 390 38,000  Level Albuquerque Center
Wed 06:49:48 PM 35.5431 -107.7558 266° West 337 388 38,000  Level Albuquerque Center
Wed 06:50:50 PM 35.5364 -107.8858 266° West 339 390 38,000  Level Albuquerque Center
Wed 06:51:52 PM 35.5303 -107.9978 266° West 341 392 38,000  Level Albuquerque Center
Wed 06:52:54 PM 35.5228 -108.1292 266° West 344 396 38,000  Level Albuquerque Center
Wed 06:53:55 PM 35.5161 -108.2436 266° West 347 399 38,000  Level Albuquerque Center
Wed 06:54:57 PM 35.5089 -108.3569 266° West 347 399 38,000  Level Albuquerque Center
Wed 06:55:59 PM 35.5008 -108.4900 266° West 349 402 38,000  Level Albuquerque Center
Wed 06:57:00 PM 35.4942 -108.6039 266° West 349 402 38,000  Level Albuquerque Center
Wed 06:58:02 PM 35.4858 -108.7378 266° West 349 402 38,000  Level Albuquerque Center
Wed 06:59:04 PM 35.4778 -108.8503 265° West 348 400 38,000  Level Albuquerque Center
Wed 07:00:06 PM 35.4567 -108.9764 258° West 341 392 38,000  Level Albuquerque Center
Wed 07:01:07 PM 35.4347 -109.0875 256° West 344 396 38,000  Level Albuquerque Center
Wed 07:02:09 PM 35.4131 -109.1975 256° West 345 397 38,000  Level Albuquerque Center
Wed 07:03:11 PM 35.3867 -109.3250 256° West 346 398 38,000  Level Albuquerque Center
Wed 07:04:12 PM 35.3650 -109.4331 256° West 342 394 38,000  Level Albuquerque Center
Wed 07:05:14 PM 35.3386 -109.5561 255° West 336 387 38,000  Level Albuquerque Center
Wed 07:06:16 PM 35.3161 -109.6639 256° West 337 388 38,000  Level Albuquerque Center
Wed 07:07:17 PM 35.2939 -109.7747 256° West 345 397 38,000  Level Albuquerque Center
Wed 07:08:19 PM 35.2672 -109.9033 256° West 349 402 38,000  Level Albuquerque Center
Wed 07:09:21 PM 35.2447 -110.0131 256° West 347 399 38,000  Level Albuquerque Center
Wed 07:10:22 PM 35.2167 -110.1414 255° West 350 403 38,000  Level Albuquerque Center
Wed 07:11:24 PM 35.1933 -110.2508 255° West 348 400 38,000  Level Albuquerque Center
Wed 07:12:26 PM 35.1650 -110.3797 255° West 351 404 38,000  Level Albuquerque Center
Wed 07:13:27 PM 35.1403 -110.4908 255° West 352 405 38,000  Level Albuquerque Center
Wed 07:14:29 PM 35.1158 -110.6036 255° West 357 411 38,000  Level Albuquerque Center
Wed 07:15:31 PM 35.0872 -110.7356 255° West 360 414 38,000  Level Albuquerque Center
Wed 07:16:32 PM 35.0631 -110.8486 255° West 360 414 38,000 -244 Level Albuquerque Center
Wed 07:17:34 PM 35.0356 -110.9750 255° West 365 420 37,500 -726 Descending Albuquerque Center
Wed 07:18:36 PM 35.0119 -111.1000 257° West 378 435 36,500 -726 Descending Albuquerque Center
Wed 07:19:38 PM 34.9844 -111.2258 255° West 387 445 36,000 -244 Descending Albuquerque Center
Wed 07:20:39 PM 34.9567 -111.3503 255° West 383 441 36,000  Level Albuquerque Center
Wed 07:21:41 PM 34.9236 -111.5008 255° West 385 443 36,000  Level Albuquerque Center
Wed 07:22:43 PM 34.8958 -111.6258 255° West 385 443 36,000  Level Albuquerque Center
Wed 07:23:45 PM 34.8686 -111.7489 255° West 385 443 36,000  Level Albuquerque Center
Wed 07:24:46 PM 34.8403 -111.8750 255° West 386 444 36,000  Level Albuquerque Center
Wed 07:25:48 PM 34.8111 -112.0011 254° West 388 447 36,000  Level Albuquerque Center
Wed 07:26:50 PM 34.7828 -112.1272 255° West 387 445 36,000  Level Albuquerque Center
Wed 07:27:51 PM 34.7494 -112.2789 255° West 387 445 36,000  Level Albuquerque Center
Wed 07:28:53 PM 34.7189 -112.4083 254° West 391 450 36,000  Level Albuquerque Center
Wed 07:29:54 PM 34.6956 -112.5406 258° West 397 457 36,000  Level Albuquerque Center
Wed 07:30:56 PM 34.6794 -112.6736 262° West 400 460 36,000  Level Albuquerque Center
Wed 07:31:58 PM 34.6642 -112.8075 262° West 400 460 36,000  Level Albuquerque Center
Wed 07:32:59 PM 34.6481 -112.9414 262° West 401 461 36,000  Level Albuquerque Center
Wed 07:34:01 PM 34.6319 -113.0753 262° West 402 463 36,000  Level Albuquerque Center
Wed 07:35:03 PM 34.6156 -113.2089 262° West 401 461 36,000  Level Albuquerque Center
Wed 07:36:04 PM 34.5956 -113.3711 262° West 404 465 36,000  Level Albuquerque Center
Wed 07:37:06 PM 34.5797 -113.5067 262° West 405 466 36,000  Level Albuquerque Center
Wed 07:38:08 PM 34.5628 -113.6417 261° West 406 467 36,000  Level Albuquerque Center
Wed 07:39:09 PM 34.5375 -113.7706 257° West 398 458 36,000  Level Albuquerque Center
Wed 07:40:11 PM 34.5072 -113.9064 255° West 404 465 36,000  Level Albuquerque Center
Wed 07:41:13 PM 34.4806 -114.0381 256° West 402 463 36,000  Level Albuquerque Center
Wed 07:42:14 PM 34.4536 -114.1694 256° West 403 464 36,000  Level Albuquerque Center
Wed 07:42:41 PM 34.4425 -114.2258 257° West 401 461 36,000  Level Los Angeles Center
Wed 07:43:44 PM 34.4100 -114.3850 256° West 405 466 36,000  Level Los Angeles Center
Wed 07:44:46 PM 34.3825 -114.5172 256° West 406 467 36,000  Level Los Angeles Center
Wed 07:45:48 PM 34.3542 -114.6497 256° West 409 471 36,000  Level Los Angeles Center
Wed 07:46:50 PM 34.3258 -114.7856 256° West 414 476 36,000  Level Los Angeles Center
Wed 07:47:52 PM 34.2969 -114.9236 256° West 423 487 36,000  Level Los Angeles Center
Wed 07:48:54 PM 34.2672 -115.0614 255° West 424 488 36,000  Level Los Angeles Center
Wed 07:49:56 PM 34.2317 -115.2283 256° West 428 493 36,000  Level Los Angeles Center
Wed 07:50:58 PM 34.2025 -115.3667 256° West 428 493 36,000  Level Los Angeles Center
Wed 07:52:00 PM 34.1714 -115.5047 255° West 428 493 36,000  Level Los Angeles Center
Wed 07:53:02 PM 34.1406 -115.6431 255° West 428 493 36,000  Level Los Angeles Center
Wed 07:54:05 PM 34.1097 -115.7844 255° West 434 499 36,000  Level Los Angeles Center
Wed 07:55:07 PM 34.0856 -115.9539 260° West 430 495 36,000 -968 Level Los Angeles Center
Wed 07:56:09 PM 34.0644 -116.0958 260° West 431 496 34,000 -2,274 Descending Los Angeles Center
Wed 07:57:11 PM 34.0428 -116.2372 260° West 432 497 31,300 -2,419 Descending Los Angeles Center
Wed 07:58:13 PM 34.0222 -116.3722 260° West 416 479 29,000 -2,129 Descending Los Angeles Center
Wed 07:59:15 PM 34.0033 -116.5036 260° West 403 464 26,900 -2,143 Descending Los Angeles Center
Wed 08:00:19 PM 33.9914 -116.6544 265° West 382 440 24,500 -2,095 Descending Los Angeles Center
Wed 08:01:21 PM 33.9817 -116.7733 264° West 364 419 22,500 -1,887 Descending Los Angeles Center
Wed 08:02:23 PM 33.9722 -116.8908 264° West 357 411 20,600 -1,979 Descending Los Angeles Center
Wed 08:02:55 PM 33.9667 -116.9667 265° West 350 403 19,400 -2,129 Descending Southern California TRACON
Wed 08:03:56 PM 33.9500 -117.0833 260° West 365 420 17,300 -1,388 Descending Southern California TRACON
Wed 08:04:56 PM 33.9500 -117.2167 270° West 363 418 16,600 -1,250 Descending Southern California TRACON
Wed 08:05:56 PM 33.9333 -117.3333 260° West 349 402 14,800 -1,878 Descending Southern California TRACON
Wed 08:06:51 PM 33.9500 -117.4333 281° West 348 400 13,000 -1,983 Descending Southern California TRACON
Wed 08:07:51 PM 33.9833 -117.5333 292° West 342 394 11,000 -1,333 Descending Southern California TRACON
Wed 08:08:57 PM 34.0167 -117.6500 289° West 338 389 10,200 -810 Descending Southern California TRACON
Wed 08:09:57 PM 34.0000 -117.7500 259° West 274 315 9,300 -1,150 Descending Southern California TRACON
Wed 08:10:57 PM 33.9833 -117.8333 256° West 279 321 7,900 -1,300 Descending Southern California TRACON
Wed 08:11:57 PM 33.9833 -117.9333 270° West 283 326 6,700 -1,158 Descending Southern California TRACON
Wed 08:12:51 PM 33.9667 -118.0167 256° West 280 322 5,700 -1,053 Descending Southern California TRACON
Wed 08:13:51 PM 33.9667 -118.1000 270° West 254 292 4,700 -1,150 Descending Southern California TRACON
Wed 08:14:51 PM 33.9500 -118.1833 256° West 225 259 3,400 -1,150 Descending Southern California TRACON
Wed 08:15:51 PM 33.9500 -118.2500 270° West 195 224 2,400 -950 Descending Southern California TRACON
Wed 08:16:51 PM 33.9500 -118.3000 270° West 174 200 1,500 -919 Descending Southern California TRACON
Wed 08:17:55 PM 33.9408 -118.3581 259° West 176 203 500 -571 Descending Los Angeles Center
Wed 08:18:57 PM 33.9381 -118.3897 264° West 167 192 300 -194 Descending Los Angeles Center
Wed 08:20:00 PM 33.9333 -118.4000 270° West  Level FlightAware Approximate

Login

Don't have an account? Register now (free) for customized features, flight alerts, and more!